Time;durP1;ratioP1;P1;durP2;ratioP2;P2;SDS_P1;SDS_P2;PMS_P1;PMS_P2;Temp;Humidity;BMP_temperature;BMP_pressure;BME280_temperature;BME280_humidity;BME280_pressure;Samples;Min_cycle;Max_cycle;Signal;HPM_P1;HPM_P2
2022/03/17 00:01:08;;;;;;;;;;;9.60;99.90;;;;;;5097574;28;19924;-60
2022/03/17 00:03:34;;;;;;;;;;;9.60;99.90;;;;;;5096995;28;20278;-60
2022/03/17 00:06:00;;;;;;;;;;;9.60;99.90;;;;;;5096420;28;19924;-60
2022/03/17 00:08:25;;;;;;;;;;;9.60;99.90;;;;;;5096958;28;20281;-60
2022/03/17 00:10:51;;;;;;;;;;;9.60;99.90;;;;;;5102942;28;19923;-59
2022/03/17 00:13:17;;;;;;;;;;;9.60;99.90;;;;;;5115778;28;19927;-60
2022/03/17 00:15:42;;;;;;;;;;;9.60;99.90;;;;;;5100502;28;19923;-60
2022/03/17 00:18:08;;;;;;;;;;;9.60;99.90;;;;;;5096572;28;19924;-60
2022/03/17 00:20:34;;;;;;;;;;;9.60;99.90;;;;;;5096369;28;19924;-60
2022/03/17 00:22:59;;;;;;;;;;;9.50;99.90;;;;;;5095542;28;19927;-59
2022/03/17 00:25:26;;;;;;;;;;;9.50;99.90;;;;;;5096673;28;19924;-59
2022/03/17 00:27:52;;;;;;;;;;;9.50;99.90;;;;;;5096209;28;19978;-60
2022/03/17 00:30:17;;;;;;;;;;;9.50;99.90;;;;;;5096781;28;20270;-59
2022/03/17 00:32:43;;;;;;;;;;;9.40;99.90;;;;;;5095342;28;19935;-60
2022/03/17 00:37:54;;;;;;;;;;;9.40;99.90;;;;;;5096947;28;20423;-60
2022/03/17 00:40:20;;;;;;;;;;;9.40;99.90;;;;;;5093845;28;19924;-59
2022/03/17 00:42:46;;;;;;;;;;;9.50;99.90;;;;;;5096848;28;19976;-60
2022/03/17 00:45:12;;;;;;;;;;;9.40;99.90;;;;;;5096393;28;19997;-59
2022/03/17 00:47:38;;;;;;;;;;;9.40;99.90;;;;;;5095489;28;19967;-60
2022/03/17 00:50:05;;;;;;;;;;;9.40;99.90;;;;;;5095782;28;19928;-60
2022/03/17 00:52:30;;;;;;;;;;;9.40;99.90;;;;;;5096445;28;19978;-60
2022/03/17 00:54:57;;;;;;;;;;;9.50;99.90;;;;;;5095239;28;20340;-60
2022/03/17 00:57:23;;;;;;;;;;;9.40;99.90;;;;;;5094971;28;19931;-60
2022/03/17 00:59:49;;;;;;;;;;;9.40;99.90;;;;;;5096227;28;19924;-60
2022/03/17 01:02:15;;;;;;;;;;;9.40;99.90;;;;;;5094706;28;19993;-60
2022/03/17 01:04:40;;;;;;;;;;;9.40;99.90;;;;;;5095902;28;19924;-59
2022/03/17 01:07:06;;;;;;;;;;;9.30;99.90;;;;;;5095904;28;19927;-60
2022/03/17 01:09:32;;;;;;;;;;;9.30;99.90;;;;;;5094533;28;19951;-60
2022/03/17 01:11:58;;;;;;;;;;;9.30;99.90;;;;;;5111700;28;19923;-59
2022/03/17 01:14:24;;;;;;;;;;;9.40;99.90;;;;;;5116641;27;19924;-60
2022/03/17 01:16:50;;;;;;;;;;;9.40;99.90;;;;;;5104765;28;20011;-60
2022/03/17 01:19:19;;;;;;;;;;;9.30;99.90;;;;;;5095572;28;20469;-60
2022/03/17 01:21:45;;;;;;;;;;;9.40;99.90;;;;;;5094605;28;19928;-60
2022/03/17 01:24:11;;;;;;;;;;;9.40;99.90;;;;;;5093743;28;19959;-60
2022/03/17 01:26:36;;;;;;;;;;;9.30;99.90;;;;;;5095397;28;20012;-60
2022/03/17 01:29:02;;;;;;;;;;;9.30;99.90;;;;;;5094708;28;19967;-60
2022/03/17 01:31:29;;;;;;;;;;;9.40;99.90;;;;;;5095841;28;20344;-60
2022/03/17 01:33:54;;;;;;;;;;;9.30;99.90;;;;;;5108985;28;19924;-60
2022/03/17 01:36:20;;;;;;;;;;;9.30;99.90;;;;;;5094951;28;20048;-60
2022/03/17 01:38:46;;;;;;;;;;;9.40;99.90;;;;;;5095662;28;19924;-60
2022/03/17 01:41:11;;;;;;;;;;;9.40;99.90;;;;;;5095184;28;20655;-60
2022/03/17 01:43:37;;;;;;;;;;;9.40;99.90;;;;;;5094580;28;19924;-60
2022/03/17 01:46:03;;;;;;;;;;;9.40;99.90;;;;;;5095396;28;20328;-61
2022/03/17 01:48:28;;;;;;;;;;;9.40;99.90;;;;;;5094561;28;19932;-60
2022/03/17 01:50:54;;;;;;;;;;;9.40;99.90;;;;;;5093429;28;19931;-59
2022/03/17 01:53:21;;;;;;;;;;;9.40;99.90;;;;;;5094797;28;19931;-60
2022/03/17 01:55:47;;;;;;;;;;;9.40;99.90;;;;;;5094912;28;20032;-60
2022/03/17 01:58:12;;;;;;;;;;;9.30;99.90;;;;;;5094638;28;20024;-60
2022/03/17 02:00:40;;;;;;;;;;;9.30;99.90;;;;;;5094691;28;19924;-61
2022/03/17 02:03:06;;;;;;;;;;;9.40;99.90;;;;;;5093148;28;19967;-60
2022/03/17 02:05:33;;;;;;;;;;;9.30;99.90;;;;;;5093152;28;19978;-60
2022/03/17 02:07:58;;;;;;;;;;;9.30;99.90;;;;;;5094932;28;19925;-60
2022/03/17 02:10:24;;;;;;;;;;;9.30;99.90;;;;;;5095229;28;19924;-60
2022/03/17 02:15:34;;;;;;;;;;;9.40;99.90;;;;;;5114945;28;19932;-60
2022/03/17 02:18:00;;;;;;;;;;;9.40;99.90;;;;;;5110569;28;19924;-60
2022/03/17 02:20:26;;;;;;;;;;;9.40;99.90;;;;;;5094042;28;19924;-60
2022/03/17 02:22:52;;;;;;;;;;;9.30;99.90;;;;;;5094663;28;20082;-60
2022/03/17 02:25:39;;;;;;;;;;;9.30;99.90;;;;;;5093587;28;19924;-60
2022/03/17 02:28:05;;;;;;;;;;;9.30;99.90;;;;;;5092831;28;20429;-60
2022/03/17 02:30:34;;;;;;;;;;;9.30;99.90;;;;;;5094534;28;20267;-59
2022/03/17 02:33:00;;;;;;;;;;;9.20;99.90;;;;;;5093290;28;20024;-60
2022/03/17 02:35:26;;;;;;;;;;;9.30;99.90;;;;;;5094217;28;20283;-60
2022/03/17 02:37:52;;;;;;;;;;;9.30;99.90;;;;;;5094616;28;19924;-60
2022/03/17 02:40:18;;;;;;;;;;;9.20;99.90;;;;;;5093034;28;19969;-60
2022/03/17 02:42:45;;;;;;;;;;;9.30;99.90;;;;;;5094300;28;19998;-60
2022/03/17 02:45:11;;;;;;;;;;;9.20;99.90;;;;;;5087026;28;19923;-60
2022/03/17 02:47:37;;;;;;;;;;;9.30;99.90;;;;;;5082071;28;19928;-59
2022/03/17 02:50:04;;;;;;;;;;;9.40;99.90;;;;;;5092815;28;19946;-60
2022/03/17 02:52:30;;;;;;;;;;;9.20;99.90;;;;;;5083130;28;19978;-60
2022/03/17 02:54:56;;;;;;;;;;;9.30;99.90;;;;;;5077589;28;19924;-60
2022/03/17 02:57:21;;;;;;;;;;;9.20;99.90;;;;;;5081328;28;19924;-60
2022/03/17 02:59:48;;;;;;;;;;;9.20;99.90;;;;;;5086826;28;19924;-60
2022/03/17 03:02:14;;;;;;;;;;;9.30;99.90;;;;;;5092714;28;19967;-60
2022/03/17 03:04:40;;;;;;;;;;;9.20;99.90;;;;;;5094020;28;19939;-60
2022/03/17 03:07:06;;;;;;;;;;;9.20;99.90;;;;;;5092557;28;20136;-60
2022/03/17 03:09:33;;;;;;;;;;;9.20;99.90;;;;;;5092212;28;19925;-59
2022/03/17 03:11:59;;;;;;;;;;;9.30;99.90;;;;;;5097524;28;19928;-59
2022/03/17 03:14:25;;;;;;;;;;;9.30;99.90;;;;;;5093834;28;19990;-60
2022/03/17 03:16:51;;;;;;;;;;;9.30;99.90;;;;;;5091545;28;19926;-60
2022/03/17 03:19:16;;;;;;;;;;;9.30;99.90;;;;;;5093698;28;20019;-60
2022/03/17 03:21:48;;;;;;;;;;;9.40;99.90;;;;;;5092662;28;20296;-60
2022/03/17 03:24:14;;;;;;;;;;;9.50;99.90;;;;;;5090910;28;19974;-60
2022/03/17 03:26:40;;;;;;;;;;;9.40;99.90;;;;;;5093729;28;19924;-60
2022/03/17 03:29:20;;;;;;;;;;;9.40;99.90;;;;;;5091029;28;20397;-60
2022/03/17 03:31:46;;;;;;;;;;;9.50;99.90;;;;;;5091686;28;20370;-60
2022/03/17 03:34:11;;;;;;;;;;;9.40;99.90;;;;;;5093637;28;19935;-60
2022/03/17 03:39:21;;;;;;;;;;;9.50;99.90;;;;;;5092919;28;19970;-60
2022/03/17 03:41:47;;;;;;;;;;;9.50;99.90;;;;;;5093556;28;19932;-60
2022/03/17 03:44:14;;;;;;;;;;;9.50;99.90;;;;;;5092669;28;19925;-60
2022/03/17 03:46:40;;;;;;;;;;;9.50;99.90;;;;;;5092622;28;20362;-60
2022/03/17 03:49:06;;;;;;;;;;;9.60;99.90;;;;;;5093120;28;19931;-60
2022/03/17 03:51:32;;;;;;;;;;;9.60;99.90;;;;;;5092669;28;19935;-60
2022/03/17 03:54:13;;;;;;;;;;;9.50;99.90;;;;;;5092899;28;19924;-60
2022/03/17 03:56:39;;;;;;;;;;;9.60;99.90;;;;;;5092409;28;20313;-60
2022/03/17 03:59:20;;;;;;;;;;;9.50;99.90;;;;;;5093500;28;19953;-60
2022/03/17 04:01:47;;;;;;;;;;;9.50;99.90;;;;;;5091427;28;19930;-60
2022/03/17 04:04:17;;;;;;;;;;;9.50;99.90;;;;;;5092310;28;19924;-60
2022/03/17 04:06:45;;;;;;;;;;;9.50;99.90;;;;;;5093136;28;20290;-60
2022/03/17 04:09:12;;;;;;;;;;;9.60;99.90;;;;;;5092374;28;19925;-60
2022/03/17 04:11:38;;;;;;;;;;;9.50;99.90;;;;;;5103572;28;19931;-60
2022/03/17 04:14:04;;;;;;;;;;;9.60;99.90;;;;;;5100341;28;19956;-59
2022/03/17 04:16:30;;;;;;;;;;;9.60;99.90;;;;;;5092660;28;20415;-59
2022/03/17 04:18:55;;;;;;;;;;;9.50;99.90;;;;;;5092469;28;19924;-60
2022/03/17 04:21:21;;;;;;;;;;;9.60;99.90;;;;;;5091617;28;19963;-60
2022/03/17 04:23:46;;;;;;;;;;;9.60;99.90;;;;;;5092376;28;19974;-60
2022/03/17 04:26:12;;;;;;;;;;;9.80;99.90;;;;;;5074039;28;19950;-60
2022/03/17 04:28:38;;;;;;;;;;;9.60;99.90;;;;;;5092980;28;19924;-60
2022/03/17 04:31:04;;;;;;;;;;;9.70;99.90;;;;;;5092165;28;19935;-60
2022/03/17 04:33:29;;;;;;;;;;;9.70;99.90;;;;;;5092286;28;20427;-60
2022/03/17 04:35:55;;;;;;;;;;;9.70;99.90;;;;;;5092655;28;19950;-60
2022/03/17 04:38:22;;;;;;;;;;;9.70;99.90;;;;;;5095257;28;19924;-60
2022/03/17 04:40:49;;;;;;;;;;;9.80;99.90;;;;;;5094090;28;19971;-60
2022/03/17 04:43:17;;;;;;;;;;;9.70;99.90;;;;;;5095299;28;19924;-60
2022/03/17 04:45:44;;;;;;;;;;;9.70;99.90;;;;;;5096179;28;19928;-61
2022/03/17 04:48:10;;;;;;;;;;;9.70;99.90;;;;;;5095522;28;19924;-61
2022/03/17 04:50:36;;;;;;;;;;;9.70;99.90;;;;;;5096410;28;19969;-60
2022/03/17 04:55:46;;;;;;;;;;;9.60;99.90;;;;;;5096398;28;19924;-60
2022/03/17 04:58:13;;;;;;;;;;;9.70;99.90;;;;;;5094551;28;20329;-60
2022/03/17 05:00:40;;;;;;;;;;;9.60;99.90;;;;;;5095262;28;19981;-60
2022/03/17 05:03:05;;;;;;;;;;;9.60;99.90;;;;;;5096405;28;20294;-61
2022/03/17 05:05:32;;;;;;;;;;;9.50;99.90;;;;;;5095211;28;19932;-60
2022/03/17 05:07:57;;;;;;;;;;;9.40;99.90;;;;;;5092989;28;20385;-60
2022/03/17 05:10:23;;;;;;;;;;;9.40;99.90;;;;;;5097878;28;20014;-60
2022/03/17 05:12:49;;;;;;;;;;;9.20;99.90;;;;;;5116587;28;20305;-60
2022/03/17 05:15:16;;;;;;;;;;;9.00;99.90;;;;;;5108141;28;19935;-60
2022/03/17 05:17:42;;;;;;;;;;;9.00;99.90;;;;;;5096012;28;20262;-60
2022/03/17 05:20:09;;;;;;;;;;;9.00;99.90;;;;;;5096042;28;19949;-59
2022/03/17 05:22:34;;;;;;;;;;;8.90;99.90;;;;;;5094886;28;20030;-59
2022/03/17 05:25:00;;;;;;;;;;;8.80;99.90;;;;;;5095384;28;20374;-59
2022/03/17 05:27:26;;;;;;;;;;;8.80;99.90;;;;;;5095658;28;19924;-59
2022/03/17 05:29:51;;;;;;;;;;;8.70;99.90;;;;;;5093067;28;20430;-59
2022/03/17 05:32:17;;;;;;;;;;;8.60;99.90;;;;;;5094082;28;19924;-59
2022/03/17 05:34:43;;;;;;;;;;;8.50;99.90;;;;;;5095587;28;20371;-59
2022/03/17 05:37:09;;;;;;;;;;;8.50;99.90;;;;;;5094380;28;20019;-59
2022/03/17 05:39:35;;;;;;;;;;;8.50;99.90;;;;;;5095434;28;20397;-59
2022/03/17 05:42:00;;;;;;;;;;;8.50;99.90;;;;;;5095144;28;19931;-59
2022/03/17 05:44:26;;;;;;;;;;;8.50;99.90;;;;;;5094405;28;19932;-59
2022/03/17 05:46:52;;;;;;;;;;;8.50;99.90;;;;;;5095109;28;19947;-59
2022/03/17 05:49:19;;;;;;;;;;;8.50;99.90;;;;;;5094022;28;20401;-59
2022/03/17 05:51:45;;;;;;;;;;;8.40;99.90;;;;;;5093064;28;19985;-59
2022/03/17 05:54:10;;;;;;;;;;;8.40;99.90;;;;;;5093651;28;20322;-60
2022/03/17 05:56:36;;;;;;;;;;;8.40;99.90;;;;;;5093426;28;19935;-59
2022/03/17 05:59:02;;;;;;;;;;;8.40;99.90;;;;;;5092967;28;19939;-59
2022/03/17 06:01:27;;;;;;;;;;;8.50;99.90;;;;;;5093985;28;19959;-60
2022/03/17 06:03:53;;;;;;;;;;;8.50;99.90;;;;;;5094480;28;19924;-60
2022/03/17 06:06:19;;;;;;;;;;;8.60;99.90;;;;;;5094441;28;20002;-60
2022/03/17 06:08:44;;;;;;;;;;;8.50;99.90;;;;;;5092915;28;20378;-60
2022/03/17 06:11:10;;;;;;;;;;;8.40;99.90;;;;;;5103030;28;19947;-60
2022/03/17 06:13:36;;;;;;;;;;;8.30;99.90;;;;;;5114794;28;19966;-60
2022/03/17 06:16:01;;;;;;;;;;;8.20;99.90;;;;;;5115363;28;19982;-60
2022/03/17 06:18:27;;;;;;;;;;;8.10;99.90;;;;;;5096174;28;19951;-59
2022/03/17 06:20:52;;;;;;;;;;;8.00;99.90;;;;;;5092837;28;19931;-60
2022/03/17 06:23:18;;;;;;;;;;;8.00;99.90;;;;;;5093232;28;19974;-60
2022/03/17 06:25:44;;;;;;;;;;;8.10;99.90;;;;;;5093773;28;19924;-60
2022/03/17 06:28:09;;;;;;;;;;;7.90;99.90;;;;;;5092671;28;19928;-60
2022/03/17 06:30:36;;;;;;;;;;;7.80;99.90;;;;;;5094356;28;19931;-59
2022/03/17 06:33:04;;;;;;;;;;;7.80;99.90;;;;;;5093866;28;19925;-60
2022/03/17 06:35:30;;;;;;;;;;;7.80;99.90;;;;;;5093661;28;19928;-59
2022/03/17 06:37:57;;;;;;;;;;;7.70;99.90;;;;;;5083508;28;19924;-60
2022/03/17 06:40:24;;;;;;;;;;;7.70;99.90;;;;;;5073218;28;19998;-60
2022/03/17 06:42:50;;;;;;;;;;;7.70;99.90;;;;;;5073509;28;20393;-60
2022/03/17 06:45:16;;;;;;;;;;;7.90;99.90;;;;;;5093528;28;19947;-60
2022/03/17 06:47:41;;;;;;;;;;;7.70;99.90;;;;;;5093584;28;19924;-60
2022/03/17 06:50:08;;;;;;;;;;;8.10;99.90;;;;;;5075906;28;19935;-60
2022/03/17 06:52:34;;;;;;;;;;;7.80;99.90;;;;;;5079524;28;19994;-60
2022/03/17 06:54:59;;;;;;;;;;;7.70;99.90;;;;;;5092684;28;19968;-59
2022/03/17 06:57:25;;;;;;;;;;;7.40;99.90;;;;;;5082186;28;19936;-59
2022/03/17 06:59:51;;;;;;;;;;;7.40;99.90;;;;;;5090306;28;19924;-60
2022/03/17 07:02:17;;;;;;;;;;;7.50;99.90;;;;;;5092264;28;19932;-60
2022/03/17 07:04:43;;;;;;;;;;;7.60;99.90;;;;;;5092018;28;19950;-60
2022/03/17 07:07:08;;;;;;;;;;;7.50;99.90;;;;;;5092980;28;19923;-60
2022/03/17 07:09:34;;;;;;;;;;;7.50;99.90;;;;;;5093191;28;19924;-60
2022/03/17 07:12:00;;;;;;;;;;;7.40;99.90;;;;;;5109182;28;20397;-60
2022/03/17 07:14:26;;;;;;;;;;;7.50;99.90;;;;;;5113572;28;20011;-60
2022/03/17 07:16:52;;;;;;;;;;;7.50;99.90;;;;;;5114278;28;19955;-60
2022/03/17 07:19:17;;;;;;;;;;;7.50;99.90;;;;;;5103626;28;19924;-60
2022/03/17 07:21:43;;;;;;;;;;;7.50;99.90;;;;;;5092354;28;20294;-60
2022/03/17 07:24:09;;;;;;;;;;;7.50;99.90;;;;;;5093747;28;19935;-60
2022/03/17 07:26:36;;;;;;;;;;;7.50;99.90;;;;;;5092293;28;20394;-60
2022/03/17 07:29:02;;;;;;;;;;;7.50;99.90;;;;;;5083058;28;19928;-60
2022/03/17 07:31:28;;;;;;;;;;;7.50;99.90;;;;;;5064038;28;20393;-60
2022/03/17 07:33:54;;;;;;;;;;;7.40;99.90;;;;;;5087629;28;19924;-60
2022/03/17 07:36:20;;;;;;;;;;;7.40;99.90;;;;;;5092009;28;19932;-60
2022/03/17 07:38:45;;;;;;;;;;;7.40;99.90;;;;;;5093622;28;20336;-60
2022/03/17 07:41:11;;;;;;;;;;;7.40;99.90;;;;;;5092346;28;19924;-60
2022/03/17 07:43:37;;;;;;;;;;;7.40;99.90;;;;;;5092372;28;20463;-60
2022/03/17 07:46:14;;;;;;;;;;;7.50;99.90;;;;;;5093160;28;19924;-60
2022/03/17 07:49:10;;;;;;;;;;;7.50;99.90;;;;;;5091547;28;20022;-60
2022/03/17 07:51:39;;;;;;;;;;;7.50;99.90;;;;;;5080868;28;20581;-61
2022/03/17 07:54:04;;;;;;;;;;;7.50;99.90;;;;;;5082324;28;20285;-60
2022/03/17 07:56:30;;;;;;;;;;;7.50;99.90;;;;;;5078198;28;20008;-60
2022/03/17 07:58:56;;;;;;;;;;;7.50;99.90;;;;;;5078603;28;19929;-60
2022/03/17 08:01:24;;;;;;;;;;;7.50;99.90;;;;;;5081493;28;19931;-60
2022/03/17 08:03:50;;;;;;;;;;;7.40;99.90;;;;;;5084236;28;19978;-60
2022/03/17 08:06:17;;;;;;;;;;;7.30;99.90;;;;;;5083426;28;19925;-60
2022/03/17 08:08:43;;;;;;;;;;;7.30;99.90;;;;;;5083093;28;20294;-60
2022/03/17 08:11:09;;;;;;;;;;;7.30;99.90;;;;;;5085281;28;19932;-60
2022/03/17 08:13:34;;;;;;;;;;;7.30;99.90;;;;;;5085110;28;20370;-60
2022/03/17 08:16:01;;;;;;;;;;;7.30;99.90;;;;;;5079241;28;19982;-60
2022/03/17 08:18:27;;;;;;;;;;;7.20;99.90;;;;;;5077332;28;19929;-60
2022/03/17 08:20:52;;;;;;;;;;;7.20;99.90;;;;;;5085415;28;19920;-60
2022/03/17 08:23:21;;;;;;;;;;;7.20;99.90;;;;;;5085092;28;19924;-60
2022/03/17 08:25:48;;;;;;;;;;;7.30;99.90;;;;;;5085381;28;19928;-60
2022/03/17 08:28:14;;;;;;;;;;;7.20;99.90;;;;;;5085473;28;19926;-60
2022/03/17 08:30:39;;;;;;;;;;;7.30;99.90;;;;;;5091476;28;19924;-60
2022/03/17 08:33:05;;;;;;;;;;;7.30;99.90;;;;;;5086752;28;19924;-60
2022/03/17 08:35:31;;;;;;;;;;;7.40;99.90;;;;;;5082607;28;20386;-60
2022/03/17 08:37:58;;;;;;;;;;;7.40;99.90;;;;;;5085314;28;19928;-60
2022/03/17 08:40:23;;;;;;;;;;;7.50;99.90;;;;;;5075712;28;19944;-60
2022/03/17 08:42:49;;;;;;;;;;;7.50;99.90;;;;;;5080796;28;19933;-60
2022/03/17 08:50:44;;;;;;;;;;;7.60;99.90;;;;;;5085314;28;19950;-60
2022/03/17 08:53:09;;;;;;;;;;;7.40;99.90;;;;;;5084693;28;20361;-60
2022/03/17 08:55:36;;;;;;;;;;;7.40;99.90;;;;;;5084387;28;19927;-60
2022/03/17 08:58:02;;;;;;;;;;;7.50;99.90;;;;;;5076521;28;20263;-60
2022/03/17 09:00:30;;;;;;;;;;;7.50;99.90;;;;;;5073907;28;19925;-60
2022/03/17 09:02:57;;;;;;;;;;;7.40;99.90;;;;;;5076048;28;19920;-60
2022/03/17 09:05:23;;;;;;;;;;;7.50;99.90;;;;;;5083078;28;19924;-60
2022/03/17 09:07:48;;;;;;;;;;;7.50;99.90;;;;;;5095360;28;19931;-60
2022/03/17 09:10:16;;;;;;;;;;;7.50;99.90;;;;;;5096673;28;20386;-60
2022/03/17 09:12:42;;;;;;;;;;;7.60;99.90;;;;;;5109795;28;19923;-60
2022/03/17 09:15:08;;;;;;;;;;;7.60;99.90;;;;;;5086285;28;19985;-60
2022/03/17 09:17:39;;;;;;;;;;;7.60;99.90;;;;;;5083466;28;19925;-59
2022/03/17 09:20:08;;;;;;;;;;;7.60;99.90;;;;;;5090798;28;19924;-61
2022/03/17 09:22:34;;;;;;;;;;;7.60;99.90;;;;;;5093392;28;19932;-60
2022/03/17 09:25:00;;;;;;;;;;;7.50;99.90;;;;;;5095836;28;19925;-59
2022/03/17 09:27:28;;;;;;;;;;;7.50;99.90;;;;;;5093170;28;20370;-60
2022/03/17 09:29:53;;;;;;;;;;;7.50;99.90;;;;;;5095813;28;19969;-60
2022/03/17 09:32:20;;;;;;;;;;;7.50;99.90;;;;;;5095348;28;19924;-60
2022/03/17 09:34:46;;;;;;;;;;;7.50;99.90;;;;;;5094557;28;19956;-59
2022/03/17 09:37:11;;;;;;;;;;;7.50;99.90;;;;;;5094482;28;19998;-59
2022/03/17 09:39:46;;;;;;;;;;;7.80;99.90;;;;;;5095693;28;19931;-60
2022/03/17 09:42:14;;;;;;;;;;;7.60;99.90;;;;;;5093932;28;19928;-60
2022/03/17 09:44:40;;;;;;;;;;;7.70;99.90;;;;;;5095064;28;20457;-59
2022/03/17 09:47:09;;;;;;;;;;;7.70;99.90;;;;;;5095327;28;20014;-59
2022/03/17 09:49:36;;;;;;;;;;;7.70;99.90;;;;;;5087997;28;20415;-59
2022/03/17 09:52:10;;;;;;;;;;;7.70;99.90;;;;;;5094113;28;19924;-59
2022/03/17 09:54:35;;;;;;;;;;;7.70;99.90;;;;;;5086379;28;19924;-59
2022/03/17 09:57:01;;;;;;;;;;;7.70;99.90;;;;;;5082168;28;19927;-60
2022/03/17 09:59:27;;;;;;;;;;;7.60;99.90;;;;;;5087662;28;19935;-59
2022/03/17 10:01:53;;;;;;;;;;;7.60;99.90;;;;;;5086280;28;19920;-60
2022/03/17 10:04:19;;;;;;;;;;;7.60;99.90;;;;;;5092234;28;20332;-59
2022/03/17 10:06:46;;;;;;;;;;;7.60;99.90;;;;;;5094586;28;19932;-59
2022/03/17 10:09:12;;;;;;;;;;;7.70;99.90;;;;;;5093377;28;20015;-59
2022/03/17 10:11:38;;;;;;;;;;;7.80;99.90;;;;;;5106182;28;20034;-59
2022/03/17 10:14:05;;;;;;;;;;;7.90;99.90;;;;;;5115206;28;19930;-60
2022/03/17 10:16:31;;;;;;;;;;;7.90;99.90;;;;;;5103610;28;19967;-59
2022/03/17 10:18:57;;;;;;;;;;;7.90;99.90;;;;;;5085383;28;20360;-59
2022/03/17 10:21:24;;;;;;;;;;;7.90;99.90;;;;;;5094712;28;19920;-59
2022/03/17 10:23:55;;;;;;;;;;;8.00;99.90;;;;;;5087432;28;19925;-60
2022/03/17 10:26:40;;;;;;;;;;;8.00;99.90;;;;;;5092980;28;19928;-59
2022/03/17 10:29:10;;;;;;;;;;;8.10;99.90;;;;;;5094529;28;19924;-59
2022/03/17 10:31:50;;;;;;;;;;;8.20;99.90;;;;;;5093371;28;19978;-60
2022/03/17 10:34:16;;;;;;;;;;;8.30;99.90;;;;;;5093030;28;19939;-59
2022/03/17 10:36:45;;;;;;;;;;;8.50;99.90;;;;;;5094202;28;19920;-59
2022/03/17 10:39:11;;;;;;;;;;;8.50;99.90;;;;;;5093383;28;20011;-59
2022/03/17 10:41:43;;;;;;;;;;;8.30;99.90;;;;;;5093770;28;20019;-60
2022/03/17 10:44:10;;;;;;;;;;;8.40;99.90;;;;;;5092016;28;19920;-59
2022/03/17 10:46:35;;;;;;;;;;;8.50;99.90;;;;;;5093252;28;20263;-59
2022/03/17 10:49:02;;;;;;;;;;;8.60;99.90;;;;;;5093946;28;19926;-59
2022/03/17 10:51:30;;;;;;;;;;;8.70;99.90;;;;;;5085921;28;19924;-59
2022/03/17 10:54:02;;;;;;;;;;;8.80;99.90;;;;;;5081356;28;19925;-60
2022/03/17 10:56:27;;;;;;;;;;;8.80;99.90;;;;;;5076715;28;19929;-59
2022/03/17 10:58:53;;;;;;;;;;;8.70;99.90;;;;;;5071597;28;20408;-59
2022/03/17 11:01:33;;;;;;;;;;;8.80;99.90;;;;;;5089351;28;19928;-60
2022/03/17 11:03:59;;;;;;;;;;;8.90;99.90;;;;;;5080296;28;20015;-60
2022/03/17 11:06:27;;;;;;;;;;;9.50;99.90;;;;;;5071674;28;20012;-60
2022/03/17 11:08:53;;;;;;;;;;;9.90;99.90;;;;;;5076336;28;19935;-59
2022/03/17 11:11:20;;;;;;;;;;;10.20;99.90;;;;;;5093216;28;19924;-60
2022/03/17 11:13:48;;;;;;;;;;;10.30;99.90;;;;;;5090175;28;22279;-60
2022/03/17 11:16:14;;;;;;;;;;;10.20;99.90;;;;;;5091776;28;19924;-59
2022/03/17 11:18:40;;;;;;;;;;;10.30;99.90;;;;;;5091311;28;19924;-60
2022/03/17 11:21:14;;;;;;;;;;;10.50;99.90;;;;;;5090146;28;19924;-60
2022/03/17 11:23:55;;;;;;;;;;;10.70;99.90;;;;;;5090155;28;19989;-60
2022/03/17 11:26:22;;;;;;;;;;;10.70;99.90;;;;;;5088328;28;19931;-58
2022/03/17 11:28:48;;;;;;;;;;;10.60;99.90;;;;;;5090912;28;20381;-60
2022/03/17 11:31:17;;;;;;;;;;;10.70;99.90;;;;;;5091161;28;19985;-60
2022/03/17 11:33:43;;;;;;;;;;;10.80;99.90;;;;;;5091780;28;19924;-59
2022/03/17 11:36:08;;;;;;;;;;;10.90;99.90;;;;;;5090179;28;19920;-59
2022/03/17 11:41:13;;;;;;;;;;;10.90;99.90;;;;;;5090328;28;19939;-59
2022/03/17 11:43:40;;;;;;;;;;;11.00;99.90;;;;;;5091034;28;19932;-60
2022/03/17 11:46:16;;;;;;;;;;;11.00;99.90;;;;;;5104766;28;19982;-60
2022/03/17 11:48:42;;;;;;;;;;;11.00;99.90;;;;;;5086925;28;19969;-59
2022/03/17 11:51:09;;;;;;;;;;;11.10;99.90;;;;;;5084498;28;19935;-59
2022/03/17 11:53:37;;;;;;;;;;;10.80;99.90;;;;;;5089722;28;20359;-59
2022/03/17 11:56:04;;;;;;;;;;;10.60;99.90;;;;;;5091898;28;19931;-59
2022/03/17 11:58:39;;;;;;;;;;;10.40;99.90;;;;;;5093142;28;20298;-60
2022/03/17 12:01:11;;;;;;;;;;;10.60;99.90;;;;;;5092676;28;20015;-59
2022/03/17 12:03:41;;;;;;;;;;;10.60;99.90;;;;;;5091052;28;19982;-59
2022/03/17 12:06:07;;;;;;;;;;;10.40;99.90;;;;;;5093131;28;19928;-60
2022/03/17 12:08:34;;;;;;;;;;;10.40;99.90;;;;;;5092306;28;19993;-60
2022/03/17 12:11:05;;;;;;;;;;;10.40;99.90;;;;;;5093501;28;20020;-59
2022/03/17 12:13:32;;;;;;;;;;;10.50;99.90;;;;;;5081629;28;19925;-59
2022/03/17 12:15:58;;;;;;;;;;;10.70;99.90;;;;;;5077415;28;19921;-59
2022/03/17 12:18:24;;;;;;;;;;;10.60;99.90;;;;;;5081882;28;19946;-60
2022/03/17 12:20:53;;;;;;;;;;;10.30;99.90;;;;;;5086454;28;19921;-59
2022/03/17 12:23:38;;;;;;;;;;;10.30;99.90;;;;;;5091881;28;19925;-60
2022/03/17 12:26:04;;;;;;;;;;;10.60;99.90;;;;;;5091573;28;19928;-59
2022/03/17 12:28:30;;;;;;;;;;;10.80;99.90;;;;;;5085164;28;19924;-59
2022/03/17 12:30:57;;;;;;;;;;;10.80;99.90;;;;;;5080980;28;19924;-59
2022/03/17 12:33:23;;;;;;;;;;;10.80;99.90;;;;;;5073797;28;19970;-59
2022/03/17 12:36:02;;;;;;;;;;;10.70;99.90;;;;;;5078449;28;19924;-59
2022/03/17 12:38:28;;;;;;;;;;;10.70;99.90;;;;;;5079292;28;20029;-59
2022/03/17 12:40:54;;;;;;;;;;;10.70;99.90;;;;;;5072799;28;20389;-59
2022/03/17 12:43:21;;;;;;;;;;;10.80;99.90;;;;;;5071671;28;19931;-59
2022/03/17 12:45:48;;;;;;;;;;;11.00;99.90;;;;;;5078442;28;19928;-58
2022/03/17 12:48:14;;;;;;;;;;;11.30;99.90;;;;;;5093022;28;19924;-59
2022/03/17 12:50:40;;;;;;;;;;;11.30;99.90;;;;;;5091275;28;19932;-59
2022/03/17 12:53:06;;;;;;;;;;;11.40;99.90;;;;;;5091680;28;19925;-60
2022/03/17 12:55:32;;;;;;;;;;;11.70;99.90;;;;;;5091177;28;20328;-60
2022/03/17 12:57:58;;;;;;;;;;;11.90;99.50;;;;;;5095250;28;19970;-59
2022/03/17 13:00:24;;;;;;;;;;;11.80;99.90;;;;;;5095322;28;19928;-61
2022/03/17 13:02:51;;;;;;;;;;;11.80;99.20;;;;;;5095093;28;19920;-59
2022/03/17 13:08:02;;;;;;;;;;;11.50;99.90;;;;;;5088484;28;19928;-59
2022/03/17 13:10:28;;;;;;;;;;;11.60;99.90;;;;;;5088288;28;19925;-59
2022/03/17 13:15:41;;;;;;;;;;;11.50;99.90;;;;;;5087217;28;20320;-60
2022/03/17 13:18:10;;;;;;;;;;;11.60;99.90;;;;;;5075597;28;19968;-60
2022/03/17 13:20:35;;;;;;;;;;;11.60;99.90;;;;;;5092570;28;19928;-59
2022/03/17 13:23:02;;;;;;;;;;;11.70;99.90;;;;;;5093180;28;19932;-60
2022/03/17 13:25:29;;;;;;;;;;;11.80;99.10;;;;;;5095869;28;19974;-60
2022/03/17 13:28:01;;;;;;;;;;;11.90;98.30;;;;;;5094662;28;19994;-59
2022/03/17 13:30:27;;;;;;;;;;;11.80;99.30;;;;;;5094611;28;19928;-60
2022/03/17 13:32:57;;;;;;;;;;;11.90;99.90;;;;;;5095310;28;19924;-59
2022/03/17 13:35:23;;;;;;;;;;;12.10;88.00;;;;;;5093542;28;19924;-59
2022/03/17 13:37:50;;;;;;;;;;;11.70;91.10;;;;;;5094923;28;19924;-60
2022/03/17 13:40:17;;;;;;;;;;;11.40;98.00;;;;;;5092450;28;19924;-59
2022/03/17 13:43:01;;;;;;;;;;;11.30;99.60;;;;;;5083685;28;20015;-60
2022/03/17 13:45:29;;;;;;;;;;;11.10;99.90;;;;;;5084543;28;19925;-60
2022/03/17 13:48:00;;;;;;;;;;;11.00;99.90;;;;;;5081123;28;19978;-59
2022/03/17 13:50:27;;;;;;;;;;;10.90;99.00;;;;;;5083228;28;19923;-60
2022/03/17 13:52:55;;;;;;;;;;;10.90;99.90;;;;;;5094491;28;19924;-60
2022/03/17 13:55:21;;;;;;;;;;;11.10;99.90;;;;;;5094128;28;19931;-60
2022/03/17 13:57:47;;;;;;;;;;;11.20;99.90;;;;;;5094420;28;19928;-60
2022/03/17 14:00:14;;;;;;;;;;;11.30;99.90;;;;;;5092329;28;19924;-60
2022/03/17 14:02:39;;;;;;;;;;;11.40;98.60;;;;;;5094318;28;19931;-60
2022/03/17 14:05:11;;;;;;;;;;;11.70;96.50;;;;;;5095110;28;19928;-59
2022/03/17 14:07:37;;;;;;;;;;;11.80;96.80;;;;;;5093641;28;19928;-59
2022/03/17 14:10:03;;;;;;;;;;;11.90;90.90;;;;;;5093280;28;19924;-60
2022/03/17 14:12:29;;;;;;;;;;;11.70;93.70;;;;;;5114175;28;19930;-59
2022/03/17 14:14:55;;;;;;;;;;;11.60;94.10;;;;;;5108440;28;19931;-60
2022/03/17 14:17:20;;;;;;;;;;;11.60;97.80;;;;;;5093197;28;19920;-59
2022/03/17 14:19:46;;;;;;;;;;;11.70;92.40;;;;;;5081239;28;19931;-60
2022/03/17 14:24:56;;;;;;;;;;;11.60;90.00;;;;;;5087041;28;19932;-59
2022/03/17 14:27:22;;;;;;;;;;;11.50;93.00;;;;;;5094245;28;20277;-60
2022/03/17 14:29:47;;;;;;;;;;;11.60;96.00;;;;;;5092676;28;20403;-60
2022/03/17 14:32:13;;;;;;;;;;;11.80;96.30;;;;;;5094166;28;20394;-60
2022/03/17 14:34:41;;;;;;;;;;;11.70;91.00;;;;;;5094522;28;19975;-60
2022/03/17 14:37:06;;;;;;;;;;;11.50;94.20;;;;;;5093121;28;19936;-60
2022/03/17 14:39:33;;;;;;;;;;;11.20;96.30;;;;;;5093344;28;19931;-60
2022/03/17 14:41:59;;;;;;;;;;;11.10;96.10;;;;;;5094007;28;19924;-60
2022/03/17 14:44:25;;;;;;;;;;;11.10;97.00;;;;;;5093081;28;19969;-60
2022/03/17 14:46:51;;;;;;;;;;;11.10;97.50;;;;;;5076727;28;19924;-60
2022/03/17 14:49:16;;;;;;;;;;;11.20;97.80;;;;;;5073853;28;19925;-60
2022/03/17 14:51:42;;;;;;;;;;;11.20;98.10;;;;;;5089964;28;19931;-60